KAL391 MMAA-MMAA
Flight info
| Callsign | KAL391 |
|---|---|
| Flight time | 0h 24m |
| Altitude | 4000 |
| Route | ACA |
| Aircraft | B77W/H-SDE1E2E3FGHIJ2J3J4J5M1RWXY/LB1D1 |
Departure
| Time | 2026-05-04 17:00 |
|---|---|
| Airport | General Juan N. Álvarez International Airport (MMAA) |
Arrival
| Time | 2026-05-04 17:24 |
|---|---|
| Airport | General Juan N. Álvarez International Airport (MMAA) |
| Time | Latitude | Longitude | Altitude | Speed | Heading |
|---|---|---|---|---|---|
| 2026-05-04 16:27 | 16.75966 | -99.75500 | 27 ft | 0 kts | 199° |
| 2026-05-04 16:47 | 16.75953 | -99.75494 | 28 ft | 2 kts | 140° |
| 2026-05-04 16:47 | 16.75940 | -99.75425 | 28 ft | 8 kts | 105° |
| 2026-05-04 16:48 | 16.75863 | -99.75238 | 27 ft | 11 kts | 106° |
| 2026-05-04 16:48 | 16.75840 | -99.75161 | 27 ft | 12 kts | 108° |
| 2026-05-04 16:49 | 16.75786 | -99.74995 | 27 ft | 13 kts | 109° |
| 2026-05-04 16:49 | 16.75731 | -99.74818 | 27 ft | 17 kts | 107° |
| 2026-05-04 16:50 | 16.75658 | -99.74576 | 27 ft | 18 kts | 108° |
| 2026-05-04 16:50 | 16.75579 | -99.74334 | 27 ft | 18 kts | 108° |
| 2026-05-04 16:51 | 16.75503 | -99.74092 | 27 ft | 18 kts | 108° |
| 2026-05-04 16:51 | 16.75465 | -99.73971 | 27 ft | 18 kts | 108° |
| 2026-05-04 16:51 | 16.75389 | -99.73728 | 27 ft | 17 kts | 108° |
| 2026-05-04 16:52 | 16.75305 | -99.73454 | 27 ft | 21 kts | 107° |
| 2026-05-04 16:52 | 16.75267 | -99.73355 | 27 ft | 19 kts | 126° |
| 2026-05-04 16:53 | 16.75184 | -99.73340 | 28 ft | 0 kts | 200° |
| 2026-05-04 16:56 | 16.75157 | -99.73350 | 28 ft | 3 kts | 200° |
| 2026-05-04 16:57 | 16.75152 | -99.73352 | 28 ft | 3 kts | 200° |
| 2026-05-04 16:57 | 16.75137 | -99.73357 | 28 ft | 3 kts | 200° |
| 2026-05-04 16:58 | 16.75099 | -99.73426 | 27 ft | 6 kts | 284° |
| 2026-05-04 16:58 | 16.75100 | -99.73430 | 27 ft | 0 kts | 284° |
| 2026-05-04 16:59 | 16.75104 | -99.73445 | 27 ft | 17 kts | 284° |
| 2026-05-04 17:00 | 16.76123 | -99.77952 | 1378 ft | 224 kts | 253° |
| 2026-05-04 17:00 | 16.72749 | -99.80482 | 3274 ft | 222 kts | 179° |
| 2026-05-04 17:01 | 16.70046 | -99.78879 | 3719 ft | 236 kts | 126° |
| 2026-05-04 17:01 | 16.68357 | -99.75858 | 3947 ft | 244 kts | 119° |
| 2026-05-04 17:02 | 16.66727 | -99.72817 | 3981 ft | 238 kts | 120° |
| 2026-05-04 17:02 | 16.65074 | -99.69822 | 4000 ft | 239 kts | 119° |
| 2026-05-04 17:03 | 16.64238 | -99.68317 | 3986 ft | 241 kts | 120° |
| 2026-05-04 17:03 | 16.63376 | -99.66821 | 3984 ft | 240 kts | 125° |
| 2026-05-04 17:03 | 16.61098 | -99.64309 | 3997 ft | 241 kts | 138° |
| 2026-05-04 17:04 | 16.58607 | -99.61998 | 3963 ft | 238 kts | 139° |
| 2026-05-04 17:04 | 16.56082 | -99.59666 | 3993 ft | 250 kts | 140° |
| 2026-05-04 17:05 | 16.53545 | -99.57327 | 4681 ft | 231 kts | 139° |
| 2026-05-04 17:05 | 16.51104 | -99.55111 | 4245 ft | 236 kts | 139° |
| 2026-05-04 17:06 | 16.48600 | -99.52798 | 4050 ft | 242 kts | 139° |
| 2026-05-04 17:06 | 16.47346 | -99.51649 | 4047 ft | 239 kts | 139° |
| 2026-05-04 17:07 | 16.44875 | -99.49401 | 3987 ft | 235 kts | 139° |
| 2026-05-04 17:07 | 16.44078 | -99.48623 | 3975 ft | 229 kts | 129° |
| 2026-05-04 17:07 | 16.43602 | -99.46628 | 3983 ft | 216 kts | 73° |
| 2026-05-04 17:07 | 16.44299 | -99.45271 | 4000 ft | 213 kts | 45° |
| 2026-05-04 17:08 | 16.45478 | -99.44356 | 3995 ft | 212 kts | 20° |
| 2026-05-04 17:08 | 16.48317 | -99.44619 | 3983 ft | 214 kts | 326° |
| 2026-05-04 17:08 | 16.49382 | -99.45703 | 3997 ft | 218 kts | 311° |
| 2026-05-04 17:09 | 16.50395 | -99.46914 | 4006 ft | 225 kts | 310° |
| 2026-05-04 17:09 | 16.51439 | -99.48165 | 3996 ft | 232 kts | 310° |
| 2026-05-04 17:09 | 16.52507 | -99.49449 | 3994 ft | 236 kts | 310° |
| 2026-05-04 17:10 | 16.54654 | -99.52019 | 3983 ft | 234 kts | 310° |
| 2026-05-04 17:10 | 16.57829 | -99.55793 | 3980 ft | 222 kts | 310° |
| 2026-05-04 17:11 | 16.58824 | -99.56981 | 3999 ft | 211 kts | 310° |
| 2026-05-04 17:11 | 16.59761 | -99.58097 | 3952 ft | 199 kts | 310° |
| 2026-05-04 17:11 | 16.61476 | -99.60131 | 4004 ft | 182 kts | 311° |
| 2026-05-04 17:12 | 16.62367 | -99.61039 | 3941 ft | 177 kts | 328° |
| 2026-05-04 17:12 | 16.64713 | -99.60800 | 3713 ft | 177 kts | 20° |
| 2026-05-04 17:13 | 16.68137 | -99.59530 | 3003 ft | 159 kts | 15° |
| 2026-05-04 17:14 | 16.70910 | -99.59898 | 2389 ft | 138 kts | 280° |
| 2026-05-04 17:14 | 16.71106 | -99.60849 | 2350 ft | 138 kts | 287° |
| 2026-05-04 17:14 | 16.71747 | -99.62814 | 2044 ft | 145 kts | 288° |
| 2026-05-04 17:15 | 16.72053 | -99.63799 | 1768 ft | 139 kts | 286° |
| 2026-05-04 17:15 | 16.72636 | -99.65627 | 1372 ft | 134 kts | 287° |
| 2026-05-04 17:16 | 16.73250 | -99.67522 | 1129 ft | 139 kts | 289° |
| 2026-05-04 17:16 | 16.74173 | -99.70444 | 644 ft | 139 kts | 287° |
| 2026-05-04 17:17 | 16.74463 | -99.71410 | 453 ft | 140 kts | 287° |
| 2026-05-04 17:17 | 16.75330 | -99.74186 | 27 ft | 117 kts | 289° |
| 2026-05-04 17:18 | 16.75663 | -99.75220 | 296 ft | 167 kts | 287° |
| 2026-05-04 17:18 | 16.75618 | -99.77576 | 948 ft | 187 kts | 235° |
| 2026-05-04 17:19 | 16.73151 | -99.78519 | 1641 ft | 211 kts | 175° |
| 2026-05-04 17:19 | 16.70215 | -99.77402 | 1692 ft | 232 kts | 141° |
| 2026-05-04 17:20 | 16.68572 | -99.74606 | 1858 ft | 227 kts | 111° |
| 2026-05-04 17:20 | 16.67676 | -99.72018 | 1782 ft | 229 kts | 110° |
| 2026-05-04 17:20 | 16.67138 | -99.70470 | 1797 ft | 222 kts | 106° |
| 2026-05-04 17:21 | 16.67966 | -99.67365 | 1594 ft | 183 kts | 31° |
| 2026-05-04 17:21 | 16.70208 | -99.66935 | 1253 ft | 148 kts | 341° |
| 2026-05-04 17:22 | 16.71150 | -99.67240 | 1107 ft | 143 kts | 337° |
| 2026-05-04 17:22 | 16.71777 | -99.67504 | 1002 ft | 144 kts | 332° |
| 2026-05-04 17:23 | 16.73757 | -99.69609 | 669 ft | 130 kts | 296° |
| 2026-05-04 17:23 | 16.74153 | -99.70443 | 535 ft | 132 kts | 289° |
| 2026-05-04 17:23 | 16.74740 | -99.72284 | 284 ft | 135 kts | 284° |
| 2026-05-04 17:24 | 16.75028 | -99.73213 | 136 ft | 136 kts | 285° |
| 2026-05-04 17:24 | 16.75625 | -99.75130 | 27 ft | 41 kts | 288° |
| 2026-05-04 17:25 | 16.75710 | -99.75398 | 29 ft | 38 kts | 288° |
| 2026-05-04 17:25 | 16.75832 | -99.75604 | 30 ft | 10 kts | 47° |
| 2026-05-04 17:26 | 16.75871 | -99.75520 | 29 ft | 0 kts | 66° |
| 2026-05-04 17:26 | 16.75895 | -99.75462 | 28 ft | 6 kts | 66° |
| 2026-05-04 17:27 | 16.75974 | -99.75414 | 28 ft | 8 kts | 341° |
| 2026-05-04 17:27 | 16.75984 | -99.75495 | 28 ft | 5 kts | 179° |
| 2026-05-04 17:28 | 16.75965 | -99.75500 | 28 ft | 0 kts | 198° |